Chelan, WA

1:37 AM PDT on September 20, 2014 (GMT -0700)
The Highlands | Change Station
CLOSE
Current Station
Personal Weather Station
Location: Chelan, WA
Elevation: 1610 ft
Nearby Weather Stations

Elev 1610 ft 47.86 °N, 120.04 °W | Updated 9 minutes ago

Clear
Clear
64.8 °F
Feels Like 64.8 °F
N
2.0
Wind Variable Wind from ENE
Gusts 6.0 mph

Today
High -- | Low -- °F
--% Chance of Precip.
Yesterday
High -- | Low -- °F
Precip. -- in
6:44 AM 7:01 PM
Waning Crescent, 13% visible
Pressure 30.05 in
Visibility 10.0 miles
Clouds Clear
Dew Point 52 °F
Humidity 63%
Rainfall 0.00 in
Snow Depth Not available.
UV 0 out of 12
Pollen 2.90 out of 12
Air Quality Not available.
Flu Activity Not available.
METAR KEAT 200755Z AUTO 34006KT 10SM CLR 19/10 A3007 RMK AO2 SLP176 T01890100 402830183

More Conditions Fewer Conditions

Pressure 30.05 in
Visibility 10.0 miles
Clouds Clear
Dew Point 52 °F
Humidity 63%
Rainfall 0.00 in
Snow Depth Not available.
UV 0 out of 12
Pollen 2.90 out of 12
Air Quality Not available.
Flu Activity Not available.
METAR KEAT 200755Z AUTO 34006KT 10SM CLR 19/10 A3007 RMK AO2 SLP176 T01890100 402830183

More Conditions Fewer Conditions

10-Day Weather Forecast

Almanac

Astronomy

Sep. 20, 2014 Rise Set
Actual Time 6:44 AM PDT 7:01 PM PDT
Civil Twilight 6:13 AM PDT 7:32 PM PDT
Nautical Twilight 5:36 AM PDT 8:09 PM PDT
Astronomical Twilight 4:58 AM PDT 8:46 PM PDT
Moon 3:16 AM PDT 5:17 PM PDT
Length of Visible Light 13h 19m
Length of Day
12h 17m
Tomorrow will be 3m 26s shorter.
Waning Crescent, 13% of the Moon is Illuminated
Today
Waning Crescent
Sep 24
New
Oct 1
First Quarter
Oct 8
Full
Oct 15
Last Quarter

Today's Extremes

State Highs State Lows

Community

WunderPhotos

Upload Photos

1,754,793 photos uploaded!

WunderBlogs® & News

Nearby

Snow Depth

Station Depth Elevation
Swift Creek 0 in 3770 ft
Park Creek Ridge 0 in 4600 ft
Harts Pass 1 in 6500 ft
Burnt Mountain 0 in 4200 ft
Stampede Pass 0 in 3860 ft

Earthquake Activity

City Distance Mag. Time & Date
No recent earthquake activity has been reported nearby.
Minimum magnitude displayed is 2.5.

Coastal Water Temperatures

Place Temperature
No Stations Reporting

Nearby Weather Stations